Time;durP1;ratioP1;P1;durP2;ratioP2;P2;SDS_P1;SDS_P2;PMS_P1;PMS_P2;Temp;Humidity;BMP_temperature;BMP_pressure;BME280_temperature;BME280_humidity;BME280_pressure;Samples;Min_cycle;Max_cycle;Signal;HPM_P1;HPM_P2
2023/05/06 01:01:29;;;;;;;2.10;1.80;;;;;;;6.43;100.00;100835.86;103088;1287;600184;-52
2023/05/06 01:03:57;;;;;;;7.00;1.90;;;;;;;6.39;100.00;100851.61;104874;1266;62118;-52
2023/05/06 01:06:37;;;;;;;15.10;2.30;;;;;;;6.35;100.00;100855.21;104899;1269;62101;-52
2023/05/06 01:09:10;;;;;;;6.00;1.80;;;;;;;6.28;100.00;100859.63;104805;1271;73100;-51
2023/05/06 01:11:48;;;;;;;5.40;1.90;;;;;;;6.24;100.00;100859.43;104962;1270;67387;-51
2023/05/06 01:14:52;;;;;;;1.70;1.50;;;;;;;6.19;100.00;100860.25;104690;1267;224252;-51
2023/05/06 01:17:19;;;;;;;4.40;1.90;;;;;;;6.12;100.00;100865.18;104980;1266;61136;-51
2023/05/06 01:19:52;;;;;;;5.30;2.00;;;;;;;6.10;100.00;100873.56;104865;1264;62757;-51
2023/05/06 01:22:19;;;;;;;3.20;1.90;;;;;;;6.08;100.00;100884.17;105197;1269;73593;-51
2023/05/06 01:24:46;;;;;;;4.90;2.10;;;;;;;6.02;100.00;100887.21;105240;1262;67919;-51
2023/05/06 01:27:15;;;;;;;3.10;1.90;;;;;;;5.96;100.00;100892.63;105210;1262;74278;-51
2023/05/06 01:29:44;;;;;;;1.60;1.50;;;;;;;5.90;100.00;100901.99;105250;1264;64506;-51
2023/05/06 01:32:49;;;;;;;3.00;1.70;;;;;;;5.84;100.00;100910.02;105259;1261;62545;-51
2023/05/06 01:35:20;;;;;;;2.90;1.70;;;;;;;5.77;100.00;100921.24;105566;1256;74318;-51
2023/05/06 01:38:25;;;;;;;3.80;1.80;;;;;;;5.71;100.00;100934.73;105574;1262;66608;-51
2023/05/06 01:40:54;;;;;;;4.90;1.70;;;;;;;5.65;100.00;100945.64;105487;1260;73542;-51
2023/05/06 01:43:21;;;;;;;4.00;2.10;;;;;;;5.60;100.00;100955.85;105544;1259;63055;-51
2023/05/06 01:45:52;;;;;;;6.60;1.90;;;;;;;5.53;100.00;100969.81;105395;1263;61029;-52
2023/05/06 01:48:29;;;;;;;2.00;1.90;;;;;;;5.47;100.00;100980.20;105318;1257;74445;-52
2023/05/06 01:50:56;;;;;;;7.30;2.20;;;;;;;5.41;100.00;100991.09;105490;1257;65711;-51
2023/05/06 01:53:25;;;;;;;2.00;1.90;;;;;;;5.34;100.00;101004.37;105562;1257;75436;-52
2023/05/06 01:55:52;;;;;;;3.50;1.80;;;;;;;5.27;100.00;101021.21;105572;1263;63433;-51
2023/05/06 01:58:20;;;;;;;4.30;2.30;;;;;;;5.21;100.00;101040.31;105311;1263;63241;-51
2023/05/06 02:00:46;;;;;;;3.00;1.80;;;;;;;5.18;100.00;101059.94;105477;1262;75220;-51
2023/05/06 02:03:14;;;;;;;3.10;2.40;;;;;;;5.15;100.00;101078.05;105563;1257;66153;-51
2023/05/06 02:05:42;;;;;;;4.10;2.40;;;;;;;5.11;100.00;101096.64;105499;1262;74209;-52
2023/05/06 02:08:09;;;;;;;5.10;2.40;;;;;;;5.07;100.00;101117.11;105492;1262;64628;-51
2023/05/06 02:10:36;;;;;;;6.30;2.20;;;;;;;5.03;100.00;101136.90;105544;1258;62185;-51
2023/05/06 02:13:06;;;;;;;4.90;2.30;;;;;;;4.98;100.00;101151.20;105463;1262;75684;-51
2023/05/06 02:15:34;;;;;;;5.40;2.90;;;;;;;4.97;100.00;101165.05;105810;1257;66501;-49
2023/05/06 02:18:02;;;;;;;6.50;3.00;;;;;;;4.95;100.00;101178.01;105720;1258;75461;-50
2023/05/06 02:20:29;;;;;;;4.70;2.70;;;;;;;4.93;100.00;101195.92;105649;1260;63678;-49
2023/05/06 02:22:56;;;;;;;2.40;2.20;;;;;;;4.91;100.00;101206.66;105725;1258;62812;-49
2023/05/06 02:25:23;;;;;;;5.90;2.50;;;;;;;4.88;100.00;101223.73;105766;1253;74439;-50
2023/05/06 02:27:50;;;;;;;3.50;2.50;;;;;;;4.87;100.00;101237.05;105895;1257;67318;-49
2023/05/06 02:30:17;;;;;;;5.40;3.00;;;;;;;4.86;100.00;101244.41;105726;1257;75155;-49
2023/05/06 02:32:44;;;;;;;7.80;3.00;;;;;;;4.86;100.00;101257.05;105757;1254;63160;-49
2023/05/06 02:35:11;;;;;;;5.80;3.10;;;;;;;4.86;100.00;101264.25;105697;1254;62116;-50
2023/05/06 02:37:38;;;;;;;4.30;3.20;;;;;;;4.87;100.00;101277.44;105754;1260;75857;-50
2023/05/06 02:40:07;;;;;;;5.80;2.50;;;;;;;4.89;100.00;101288.92;105778;1258;67373;-50
2023/05/06 02:42:34;;;;;;;13.10;2.60;;;;;;;4.93;100.00;101300.45;105707;1259;74498;-50
2023/05/06 02:45:02;;;;;;;3.90;2.80;;;;;;;4.97;100.00;101315.75;105672;1267;63380;-50
2023/05/06 02:47:31;;;;;;;2.40;2.30;;;;;;;5.00;100.00;101326.58;105699;1259;63042;-50
2023/05/06 02:49:58;;;;;;;4.00;2.40;;;;;;;5.04;100.00;101342.06;105620;1254;74783;-50
2023/05/06 02:52:25;;;;;;;4.50;2.40;;;;;;;5.11;100.00;101353.31;105820;1256;67456;-51
2023/05/06 02:54:52;;;;;;;2.30;2.10;;;;;;;5.20;100.00;101363.73;105680;1257;75120;-50
2023/05/06 02:57:19;;;;;;;3.10;2.80;;;;;;;5.26;100.00;101373.60;105675;1264;61630;-50
2023/05/06 02:59:46;;;;;;;4.30;2.50;;;;;;;5.29;100.00;101376.91;105721;1258;61717;-52
2023/05/06 03:02:13;;;;;;;4.70;2.90;;;;;;;5.37;100.00;101375.51;105679;1258;75154;-51
2023/05/06 03:04:40;;;;;;;6.80;1.90;;;;;;;5.46;100.00;101371.22;105689;1258;67169;-50
2023/05/06 03:07:07;;;;;;;5.70;2.60;;;;;;;5.55;100.00;101364.34;105749;1258;74129;-51
2023/05/06 03:09:35;;;;;;;5.30;2.20;;;;;;;5.61;100.00;101353.48;105663;1259;63147;-52
2023/05/06 03:12:02;;;;;;;6.70;2.70;;;;;;;5.67;100.00;101341.92;105713;1254;63073;-51
2023/05/06 03:14:29;;;;;;;3.40;2.30;;;;;;;5.72;100.00;101333.63;105788;1257;75487;-51
2023/05/06 03:16:56;;;;;;;2.60;2.20;;;;;;;5.77;100.00;101326.16;105650;1253;64915;-52
2023/05/06 03:19:24;;;;;;;7.50;2.50;;;;;;;5.84;100.00;101318.20;105707;1258;74746;-52
2023/05/06 03:21:51;;;;;;;4.70;2.20;;;;;;;5.92;100.00;101305.65;105716;1257;62566;-50
2023/05/06 03:24:19;;;;;;;5.30;2.70;;;;;;;6.00;100.00;101273.91;105727;1257;61999;-52
2023/05/06 03:26:46;;;;;;;6.50;2.60;;;;;;;6.07;100.00;101246.77;105701;1259;74610;-51
2023/05/06 03:29:13;;;;;;;6.30;2.80;;;;;;;6.13;100.00;101222.33;105721;1257;66987;-51
2023/05/06 03:31:41;;;;;;;9.30;2.80;;;;;;;6.18;100.00;101196.52;105686;1257;73581;-52
2023/05/06 03:34:09;;;;;;;5.50;2.80;;;;;;;6.24;100.00;101177.91;105654;1260;62635;-51
2023/05/06 03:36:36;;;;;;;4.80;2.60;;;;;;;6.32;100.00;101154.31;105874;1257;61462;-51
2023/05/06 03:39:03;;;;;;;11.60;2.80;;;;;;;6.44;100.00;101141.08;105688;1258;75432;-52
2023/05/06 03:41:31;;;;;;;6.50;2.50;;;;;;;6.61;100.00;101115.50;105649;1254;67446;-51
2023/05/06 03:43:58;;;;;;;6.60;2.60;;;;;;;6.81;100.00;101098.86;105715;1258;74458;-51
2023/05/06 03:46:26;;;;;;;5.50;2.50;;;;;;;7.08;100.00;101072.77;105740;1254;63026;-51
2023/05/06 03:48:53;;;;;;;3.00;2.30;;;;;;;7.37;100.00;101046.48;105645;1254;62796;-51
2023/05/06 03:51:20;;;;;;;5.70;2.60;;;;;;;7.64;100.00;101005.02;105680;1254;75228;-51
2023/05/06 03:53:47;;;;;;;4.70;2.80;;;;;;;7.88;100.00;100974.30;105728;1259;65884;-52
2023/05/06 03:56:17;;;;;;;4.70;2.70;;;;;;;8.12;100.00;100943.20;105681;1258;75042;-49
2023/05/06 03:58:45;;;;;;;6.90;3.40;;;;;;;8.42;100.00;100920.81;105736;1260;62097;-52
2023/05/06 04:01:13;;;;;;;9.00;4.00;;;;;;;8.70;100.00;100907.17;105728;1255;63103;-50
2023/05/06 04:03:40;;;;;;;4.40;3.20;;;;;;;8.98;100.00;100901.73;105705;1258;75669;-50
2023/05/06 04:06:08;;;;;;;9.70;2.80;;;;;;;9.29;100.00;100909.48;105626;1255;67478;-52
2023/05/06 04:08:35;;;;;;;6.80;2.10;;;;;;;9.57;100.00;100923.09;105437;1256;74375;-51
2023/05/06 04:11:03;;;;;;;5.80;2.40;;;;;;;9.82;100.00;100945.33;105799;1253;62543;-55
2023/05/06 04:13:33;;;;;;;8.40;2.80;;;;;;;10.01;100.00;100979.31;105775;1253;62851;-51
2023/05/06 04:16:02;;;;;;;4.20;2.40;;;;;;;10.11;100.00;101007.17;105692;1258;76133;-51
2023/05/06 04:18:34;;;;;;;6.10;2.60;;;;;;;10.18;100.00;101038.51;105747;1254;67133;-51
2023/05/06 04:21:09;;;;;;;7.80;2.30;;;;;;;10.30;100.00;101054.30;105690;1259;75419;-52
2023/05/06 04:23:38;;;;;;;2.30;2.00;;;;;;;10.40;100.00;101072.69;105691;1254;62905;-51
2023/05/06 04:26:05;;;;;;;4.70;2.30;;;;;;;10.45;100.00;101090.95;105668;1258;63036;-51
2023/05/06 04:28:34;;;;;;;7.60;2.70;;;;;;;10.51;100.00;101108.35;105714;1258;75231;-50
2023/05/06 04:31:02;;;;;;;5.80;2.20;;;;;;;10.61;100.00;101116.89;105699;1254;67572;-51
2023/05/06 04:33:36;;;;;;;8.00;2.70;;;;;;;10.73;100.00;101122.84;105651;1259;73541;-50
2023/05/06 04:36:05;;;;;;;4.10;2.00;;;;;;;10.86;100.00;101131.19;105749;1257;61627;-50
2023/05/06 04:38:36;;;;;;;3.40;2.60;;;;;;;10.90;100.00;101142.38;105729;1253;62200;-51
2023/05/06 04:41:04;;;;;;;4.80;2.30;;;;;;;10.86;100.00;101151.90;105729;1257;75838;-51
2023/05/06 04:43:32;;;;;;;3.10;2.30;;;;;;;10.90;100.00;101155.33;105741;1255;68050;-51
2023/05/06 04:46:05;;;;;;;4.90;2.10;;;;;;;11.04;100.00;101157.11;105826;1257;74459;-50
2023/05/06 04:48:34;;;;;;;4.60;2.70;;;;;;;11.04;100.00;101167.98;105733;1254;61822;-51
2023/05/06 04:51:04;;;;;;;3.90;2.40;;;;;;;11.02;100.00;101175.44;105717;1254;63048;-51
2023/05/06 04:53:31;;;;;;;4.50;2.00;;;;;;;11.12;100.00;101171.87;105735;1258;75834;-51
2023/05/06 04:55:58;;;;;;;5.30;2.50;;;;;;;11.28;100.00;101175.54;105684;1254;66555;-50
2023/05/06 04:58:25;;;;;;;3.30;2.00;;;;;;;11.35;100.00;101186.52;105700;1255;75057;-51
2023/05/06 05:00:53;;;;;;;4.10;2.40;;;;;;;11.45;100.00;101193.52;105634;1257;63101;-51
2023/05/06 05:03:20;;;;;;;5.40;2.30;;;;;;;11.55;100.00;101196.69;105718;1257;60581;-51
2023/05/06 05:05:48;;;;;;;5.20;2.40;;;;;;;11.72;100.00;101193.73;105728;1257;75586;-51
2023/05/06 05:08:16;;;;;;;3.90;2.20;;;;;;;11.84;100.00;101200.35;105666;1254;67843;-51
2023/05/06 05:10:44;;;;;;;4.00;2.00;;;;;;;11.81;100.00;101210.75;105704;1254;74314;-51
2023/05/06 05:13:15;;;;;;;5.30;1.90;;;;;;;11.92;100.00;101211.30;105677;1254;62864;-51
2023/05/06 05:15:42;;;;;;;3.00;1.90;;;;;;;12.13;100.00;101215.26;105707;1255;63309;-51
2023/05/06 05:18:10;;;;;;;2.60;1.80;;;;;;;12.34;100.00;101220.68;105723;1257;76583;-51
2023/05/06 05:20:38;;;;;;;3.70;2.00;;;;;;;12.38;100.00;101224.10;105671;1255;67517;-51
2023/05/06 05:23:07;;;;;;;4.30;2.10;;;;;;;12.36;100.00;101233.63;105703;1257;74073;-51
2023/05/06 05:25:35;;;;;;;6.60;2.30;;;;;;;12.33;100.00;101245.27;105724;1253;62387;-51
2023/05/06 05:28:02;;;;;;;7.10;2.70;;;;;;;12.33;100.00;101243.71;105753;1258;63076;-50
2023/05/06 05:30:30;;;;;;;3.20;2.50;;;;;;;12.34;100.00;101240.59;105733;1257;75490;-51
2023/05/06 05:32:57;;;;;;;2.30;1.70;;;;;;;12.32;100.00;101246.32;105673;1254;66246;-51
2023/05/06 05:35:25;;;;;;;5.20;2.10;;;;;;;12.40;100.00;101239.65;105717;1258;73434;-50
2023/05/06 05:37:53;;;;;;;5.10;2.30;;;;;;;12.41;100.00;101249.49;105668;1257;63181;-52
2023/05/06 05:40:21;;;;;;;3.40;2.30;;;;;;;12.40;100.00;101259.20;105685;1252;62783;-51
2023/05/06 05:42:50;;;;;;;2.20;1.80;;;;;;;12.44;100.00;101257.58;105734;1258;76472;-51
2023/05/06 05:45:29;;;;;;;3.10;2.00;;;;;;;12.42;100.00;101262.29;105652;1254;66514;-51
2023/05/06 05:47:56;;;;;;;4.00;2.20;;;;;;;12.43;100.00;101273.02;105717;1257;75457;-51
2023/05/06 05:50:24;;;;;;;9.20;2.30;;;;;;;12.59;100.00;101261.20;105659;1253;62535;-51
2023/05/06 05:52:52;;;;;;;2.50;2.30;;;;;;;12.69;100.00;101269.19;105901;1254;61438;-51
2023/05/06 05:55:20;;;;;;;10.80;3.30;;;;;;;12.82;100.00;101274.89;105729;1257;76402;-50
2023/05/06 05:57:47;;;;;;;8.00;2.30;;;;;;;12.92;100.00;101269.38;105740;1257;67519;-50
2023/05/06 06:00:16;;;;;;;3.60;2.20;;;;;;;13.01;100.00;101265.25;105708;1254;73577;-50
2023/05/06 06:02:43;;;;;;;10.40;2.80;;;;;;;13.02;100.00;101254.49;105725;1257;62204;-51
2023/05/06 06:05:11;;;;;;;4.10;2.50;;;;;;;12.95;100.00;101271.59;105738;1254;63076;-51
2023/05/06 06:07:38;;;;;;;3.90;2.30;;;;;;;12.99;100.00;101266.49;105673;1254;75251;-51
2023/05/06 06:10:07;;;;;;;9.70;2.40;;;;;;;13.09;100.00;101265.13;105696;1255;65648;-51
2023/05/06 06:12:35;;;;;;;2.30;1.90;;;;;;;13.14;100.00;101265.58;105735;1257;75608;-51
2023/05/06 06:15:03;;;;;;;2.80;1.90;;;;;;;13.21;100.00;101270.48;105725;1254;62604;-51
2023/05/06 06:17:31;;;;;;;12.50;2.90;;;;;;;13.29;99.50;101270.35;105703;1255;61932;-50
2023/05/06 06:19:58;;;;;;;3.50;2.20;;;;;;;13.42;99.91;101273.96;105670;1257;76366;-51
2023/05/06 06:22:25;;;;;;;5.80;2.10;;;;;;;13.57;97.66;101275.80;105725;1254;67099;-51
2023/05/06 06:24:52;;;;;;;4.40;2.70;;;;;;;13.68;95.20;101275.27;105667;1257;74945;-51
2023/05/06 06:27:19;;;;;;;5.60;2.20;;;;;;;13.79;89.62;101272.11;105647;1254;60977;-51
2023/05/06 06:29:48;;;;;;;3.20;2.10;;;;;;;13.73;78.04;101258.86;105691;1254;61863;-51
2023/05/06 06:32:15;;;;;;;9.10;1.80;;;;;;;13.64;89.07;101300.64;105759;1254;75367;-50
2023/05/06 06:34:42;;;;;;;7.50;2.30;;;;;;;13.62;85.03;101283.50;105680;1254;66608;-50
2023/05/06 06:37:09;;;;;;;4.80;2.10;;;;;;;13.50;80.58;101281.47;105808;1257;73916;-51
2023/05/06 06:39:36;;;;;;;7.60;2.40;;;;;;;13.44;87.44;101304.46;105686;1257;62044;-50
2023/05/06 06:42:05;;;;;;;2.90;2.10;;;;;;;13.61;90.47;101294.81;105865;1254;62614;-51
2023/05/06 06:44:43;;;;;;;4.80;1.90;;;;;;;13.81;77.48;101265.33;105828;1253;75391;-50
2023/05/06 06:47:11;;;;;;;4.00;2.00;;;;;;;13.88;76.26;101271.59;105883;1253;65144;-50
2023/05/06 06:49:39;;;;;;;5.30;2.10;;;;;;;14.05;73.76;101266.91;105852;1253;75242;-51
2023/05/06 06:52:06;;;;;;;3.70;1.70;;;;;;;14.28;70.06;101251.36;105724;1253;62513;-50
2023/05/06 06:54:33;;;;;;;9.60;1.90;;;;;;;14.50;67.23;101245.15;105700;1254;61621;-50
2023/05/06 06:57:00;;;;;;;2.20;2.00;;;;;;;14.58;64.78;101227.42;105645;1257;75600;-50
2023/05/06 06:59:27;;;;;;;12.40;2.10;;;;;;;14.49;65.41;101278.87;105677;1254;65760;-51
2023/05/06 07:01:54;;;;;;;4.00;1.80;;;;;;;14.59;61.83;101200.84;105740;1254;74314;-50
2023/05/06 07:04:23;;;;;;;8.50;1.70;;;;;;;14.65;60.66;101213.38;105760;1254;62545;-50
2023/05/06 07:06:50;;;;;;;6.90;1.40;;;;;;;14.78;60.77;101234.30;105734;1257;61721;-51
2023/05/06 07:09:17;;;;;;;6.10;1.40;;;;;;;14.94;59.54;101210.98;105706;1257;75993;-50
2023/05/06 07:11:44;;;;;;;7.70;2.00;;;;;;;15.08;59.33;101217.60;105655;1254;67728;-51
2023/05/06 07:14:11;;;;;;;7.40;1.60;;;;;;;15.09;58.54;101212.34;105672;1254;75227;-51
2023/05/06 07:16:38;;;;;;;3.60;1.50;;;;;;;15.05;58.44;101226.54;105661;1258;61878;-51
2023/05/06 07:19:06;;;;;;;13.90;4.70;;;;;;;14.87;58.73;101274.06;105689;1257;61583;-51
2023/05/06 07:21:33;;;;;;;8.90;1.90;;;;;;;14.84;59.10;101290.81;105684;1257;76222;-50
2023/05/06 07:24:00;;;;;;;6.10;1.50;;;;;;;14.97;59.71;101309.45;105669;1257;66129;-51
2023/05/06 07:26:27;;;;;;;1.80;1.40;;;;;;;15.12;60.22;101325.08;105683;1254;74097;-50
2023/05/06 07:28:54;;;;;;;3.50;1.60;;;;;;;15.29;59.58;101275.65;105830;1253;60690;-51
2023/05/06 07:31:21;;;;;;;2.40;1.50;;;;;;;15.49;58.43;101246.80;105642;1257;61457;-51
2023/05/06 07:33:48;;;;;;;7.50;1.80;;;;;;;15.59;57.57;101226.89;105626;1256;75245;-51
2023/05/06 07:36:16;;;;;;;1.60;1.50;;;;;;;15.35;58.61;101277.92;105807;1257;66892;-53
2023/05/06 07:38:44;;;;;;;4.50;1.60;;;;;;;15.19;59.74;101333.79;105708;1255;74503;-51
2023/05/06 07:41:11;;;;;;;5.80;1.70;;;;;;;15.04;59.74;101330.84;105706;1252;62689;-51
2023/05/06 07:43:39;;;;;;;7.50;2.40;;;;;;;15.03;60.64;101349.80;105699;1255;62803;-50
2023/05/06 07:46:06;;;;;;;3.50;1.50;;;;;;;15.27;59.00;101278.31;105669;1254;75988;-52
2023/05/06 07:48:34;;;;;;;7.00;1.80;;;;;;;15.35;56.90;101218.09;105813;1257;66846;-52
2023/05/06 07:51:02;;;;;;;6.10;1.60;;;;;;;15.34;57.10;101248.05;105728;1252;75252;-51
2023/05/06 07:53:29;;;;;;;4.70;1.70;;;;;;;15.41;56.76;101241.62;105736;1253;62980;-52
2023/05/06 07:56:00;;;;;;;7.80;1.60;;;;;;;15.34;56.02;101232.42;105627;1254;63361;-51
2023/05/06 07:58:29;;;;;;;5.70;1.60;;;;;;;15.25;56.20;101259.92;105701;1253;75317;-50
2023/05/06 08:00:57;;;;;;;8.50;1.90;;;;;;;15.22;55.44;101230.79;105878;1253;66385;-52
2023/05/06 08:03:24;;;;;;;8.10;1.40;;;;;;;15.20;55.35;101250.32;105862;1254;74894;-53
2023/05/06 08:05:51;;;;;;;3.50;1.60;;;;;;;15.38;55.63;101262.05;105677;1257;62210;-51
2023/05/06 08:08:20;;;;;;;6.40;1.70;;;;;;;15.67;53.94;101161.08;105746;1253;61556;-51
2023/05/06 08:10:47;;;;;;;2.90;1.50;;;;;;;15.89;53.99;101186.05;105700;1253;75219;-51
2023/05/06 08:13:14;;;;;;;2.70;1.30;;;;;;;15.89;52.05;101076.40;105688;1257;67667;-51
2023/05/06 08:15:41;;;;;;;3.30;1.30;;;;;;;15.53;53.10;101188.06;105681;1253;74285;-51
2023/05/06 08:18:08;;;;;;;10.70;1.80;;;;;;;15.25;54.06;101272.64;105855;1254;61532;-51
2023/05/06 08:20:48;;;;;;;3.00;1.30;;;;;;;15.25;52.81;101194.02;105683;1258;62076;-51
2023/05/06 08:23:15;;;;;;;4.60;2.00;;;;;;;15.39;51.39;101109.15;105879;1253;75549;-51
2023/05/06 08:25:42;;;;;;;8.80;1.80;;;;;;;15.51;51.65;101157.71;105892;1254;66778;-51
2023/05/06 08:28:09;;;;;;;4.20;1.30;;;;;;;15.69;50.76;101091.42;105861;1253;74621;-51
2023/05/06 08:30:37;;;;;;;8.50;1.90;;;;;;;15.85;50.71;101117.93;105865;1252;62130;-50
2023/05/06 08:33:04;;;;;;;7.70;1.50;;;;;;;15.98;50.18;101079.11;105655;1257;62181;-51
2023/05/06 08:35:31;;;;;;;4.70;1.60;;;;;;;15.95;50.21;101097.13;105848;1253;75188;-50
2023/05/06 08:37:58;;;;;;;1.90;1.40;;;;;;;15.88;49.68;101074.88;105693;1254;67112;-51
2023/05/06 08:40:25;;;;;;;3.30;1.30;;;;;;;15.80;50.42;101148.01;105829;1254;75575;-51
2023/05/06 08:42:53;;;;;;;7.70;1.70;;;;;;;15.74;50.82;101177.92;105663;1253;61225;-50
2023/05/06 08:45:21;;;;;;;11.50;1.50;;;;;;;15.57;51.13;101223.11;105693;1257;61819;-51
2023/05/06 08:47:49;;;;;;;5.40;1.20;;;;;;;15.66;51.74;101260.61;105701;1254;76608;-52
2023/05/06 08:50:16;;;;;;;1.50;1.40;;;;;;;15.69;51.24;101217.92;105920;1253;66485;-51
2023/05/06 08:52:43;;;;;;;9.70;1.80;;;;;;;15.48;50.97;101208.39;105634;1254;74188;-51
2023/05/06 08:55:10;;;;;;;6.50;1.60;;;;;;;15.49;51.61;101257.58;105666;1255;61531;-51
2023/05/06 08:57:38;;;;;;;2.30;1.30;;;;;;;15.40;51.53;101266.16;105717;1259;61762;-51
2023/05/06 09:00:09;;;;;;;10.00;3.10;;;;;;;15.18;52.11;101309.13;105592;1260;76634;-51
2023/05/06 09:02:37;;;;;;;4.90;3.00;;;;;;;15.09;52.23;101322.38;105678;1260;67120;-51
2023/05/06 09:05:08;;;;;;;7.70;1.90;;;;;;;15.21;50.46;101188.59;105600;1255;74225;-51
2023/05/06 09:07:36;;;;;;;16.40;1.80;;;;;;;15.46;50.66;101202.00;105605;1257;61829;-51
2023/05/06 09:10:05;;;;;;;10.60;2.00;;;;;;;15.60;49.42;101113.25;105620;1261;62148;-51
2023/05/06 09:12:35;;;;;;;9.60;2.90;;;;;;;15.50;50.13;101189.53;105635;1259;76301;-51
2023/05/06 09:15:03;;;;;;;10.30;2.40;;;;;;;15.55;50.70;101236.20;105690;1260;66244;-51
2023/05/06 09:17:31;;;;;;;3.30;1.60;;;;;;;15.90;49.96;101174.89;105593;1256;73859;-51
2023/05/06 09:19:58;;;;;;;8.50;1.70;;;;;;;16.17;48.63;101069.98;105634;1260;61864;-51
2023/05/06 09:22:26;;;;;;;5.80;1.60;;;;;;;16.31;46.16;100857.09;105634;1255;61733;-51
2023/05/06 09:24:57;;;;;;;16.00;2.10;;;;;;;16.32;46.02;100879.85;105666;1255;75309;-52
2023/05/06 09:27:30;;;;;;;9.60;2.00;;;;;;;16.49;46.56;100934.46;105622;1254;66675;-51
2023/05/06 09:30:01;;;;;;;5.50;2.50;;;;;;;16.75;45.24;100827.95;105648;1254;75320;-52
2023/05/06 09:32:28;;;;;;;12.00;2.70;;;;;;;16.88;43.92;100715.39;105632;1260;61763;-52
2023/05/06 09:34:56;;;;;;;6.10;1.40;;;;;;;16.83;43.96;100741.73;105482;1254;62494;-51
2023/05/06 09:37:25;;;;;;;6.30;1.60;;;;;;;16.54;43.56;100738.15;105562;1254;75650;-51
2023/05/06 09:39:56;;;;;;;5.70;1.80;;;;;;;16.35;42.74;100681.22;105636;1254;67511;-51
2023/05/06 09:42:25;;;;;;;9.70;2.00;;;;;;;16.43;44.28;100860.13;105434;1260;74103;-52
2023/05/06 09:44:52;;;;;;;5.40;1.60;;;;;;;16.76;44.55;100860.83;105610;1259;60654;-52
2023/05/06 09:47:23;;;;;;;9.90;4.60;;;;;;;16.92;43.76;100810.03;105709;1254;62825;-51
2023/05/06 09:49:51;;;;;;;4.20;2.50;;;;;;;16.79;43.77;100811.59;105558;1254;74863;-52
2023/05/06 09:52:19;;;;;;;10.50;2.50;;;;;;;16.53;44.85;100946.85;105593;1254;66903;-49
2023/05/06 09:54:46;;;;;;;3.70;3.00;;;;;;;16.30;43.80;100855.87;105621;1254;74973;-52
2023/05/06 09:57:14;;;;;;;4.20;2.60;;;;;;;16.15;43.49;100812.58;105621;1254;61279;-51
2023/05/06 09:59:42;;;;;;;2.30;1.30;;;;;;;16.10;44.54;100951.48;105601;1258;63001;-51
2023/05/06 10:02:12;;;;;;;11.80;3.00;;;;;;;16.29;44.11;100903.80;105676;1258;76136;-52
2023/05/06 10:04:43;;;;;;;1.50;1.40;;;;;;;16.56;42.98;100792.77;105580;1254;66122;-52
2023/05/06 10:07:11;;;;;;;13.30;1.90;;;;;;;16.66;42.91;100757.35;105838;1253;75554;-50
2023/05/06 10:09:39;;;;;;;3.70;2.00;;;;;;;16.60;43.67;100866.81;105873;1252;62580;-51
2023/05/06 10:12:07;;;;;;;6.60;1.50;;;;;;;16.52;43.88;100893.77;105725;1254;63091;-50
2023/05/06 10:14:37;;;;;;;4.70;1.40;;;;;;;16.75;43.87;100905.30;105873;1253;74114;-51
2023/05/06 10:17:06;;;;;;;4.10;2.10;;;;;;;16.86;42.22;100728.88;105905;1253;65541;-51
2023/05/06 10:19:33;;;;;;;7.60;1.80;;;;;;;16.68;42.40;100763.92;105703;1256;75450;-50
2023/05/06 10:22:28;;;;;;;6.30;1.90;;;;;;;16.64;42.60;100776.94;105664;1254;63040;-51
2023/05/06 10:25:04;;;;;;;9.40;4.00;;;;;;;16.87;42.50;100786.00;105890;1256;60723;-51
2023/05/06 10:27:34;;;;;;;2.80;1.70;;;;;;;17.01;41.83;100721.69;105756;1253;76604;-51
2023/05/06 10:30:01;;;;;;;7.20;2.30;;;;;;;16.99;42.22;100753.15;105667;1254;66789;-51
2023/05/06 10:32:30;;;;;;;7.80;1.40;;;;;;;16.91;42.53;100815.64;105665;1253;75173;-50
2023/05/06 10:35:03;;;;;;;23.80;3.50;;;;;;;16.78;42.17;100775.88;105689;1257;61469;-52
2023/05/06 10:37:30;;;;;;;10.80;2.70;;;;;;;16.44;42.81;100845.98;105710;1257;61533;-52
2023/05/06 10:39:57;;;;;;;1.60;1.20;;;;;;;16.23;42.66;100866.44;105630;1258;75468;-50
2023/05/06 10:42:34;;;;;;;2.00;1.00;;;;;;;16.18;43.29;100932.94;105678;1253;65008;-54
2023/05/06 10:45:02;;;;;;;7.30;1.90;;;;;;;16.35;43.71;100968.39;105667;1253;74990;-51
2023/05/06 10:47:51;;;;;;;9.00;3.10;;;;;;;16.83;44.72;101054.37;105717;1253;62880;-55
2023/05/06 10:50:23;;;;;;;10.60;5.30;;;;;;;17.37;42.55;100835.32;105733;1258;61506;-55
2023/05/06 10:52:52;;;;;;;7.70;4.30;;;;;;;17.24;41.81;100751.59;105774;1257;75462;-51
2023/05/06 10:55:26;;;;;;;3.80;1.20;;;;;;;17.02;41.76;100760.17;105678;1257;66881;-51
2023/05/06 10:57:55;;;;;;;14.60;2.50;;;;;;;16.87;42.59;100852.91;105680;1253;74164;-51
2023/05/06 11:00:23;;;;;;;9.00;2.70;;;;;;;16.63;42.88;100891.29;105711;1253;62544;-51
2023/05/06 11:02:56;;;;;;;2.80;2.50;;;;;;;16.35;43.12;100931.66;105737;1253;62527;-51
2023/05/06 11:05:23;;;;;;;1.40;1.30;;;;;;;16.05;44.27;101052.61;105662;1252;76228;-51
2023/05/06 11:07:53;;;;;;;22.60;2.90;;;;;;;16.03;44.80;101112.72;105862;1253;67043;-50
2023/05/06 11:10:31;;;;;;;14.10;1.70;;;;;;;15.96;43.47;100988.13;105829;1254;75709;-55
2023/05/06 11:13:20;;;;;;;9.60;2.20;;;;;;;15.56;43.24;100968.83;105680;1253;61398;-51
2023/05/06 11:15:51;;;;;;;1.80;1.70;;;;;;;15.28;44.80;101126.33;105737;1253;62512;-52
2023/05/06 11:18:32;;;;;;;5.40;1.10;;;;;;;15.18;44.43;101117.39;105679;1253;75225;-51
2023/05/06 11:21:01;;;;;;;6.60;1.40;;;;;;;14.96;44.84;101153.08;105739;1253;67585;-52
2023/05/06 11:23:41;;;;;;;11.10;4.90;;;;;;;15.07;44.42;101112.80;105865;1253;74187;-51
2023/05/06 11:26:09;;;;;;;3.20;1.10;;;;;;;15.25;44.50;101111.98;105895;1258;61832;-50
2023/05/06 11:28:36;;;;;;;7.50;3.00;;;;;;;15.31;44.16;101093.91;105751;1254;62575;-51
2023/05/06 11:31:03;;;;;;;8.40;2.80;;;;;;;15.52;42.77;100949.45;105770;1253;74486;-50
2023/05/06 11:33:33;;;;;;;5.50;2.20;;;;;;;15.79;43.48;100985.17;105679;1253;65965;-51
2023/05/06 11:36:00;;;;;;;2.00;1.70;;;;;;;15.99;42.05;100859.95;105890;1253;74861;-51
2023/05/06 11:38:53;;;;;;;6.40;3.50;;;;;;;16.00;42.56;100902.71;105725;1253;61831;-52
2023/05/06 11:41:21;;;;;;;10.20;3.80;;;;;;;16.01;42.08;100841.60;105870;1253;62454;-53
2023/05/06 11:43:49;;;;;;;19.10;5.70;;;;;;;16.09;43.09;100948.20;105684;1257;76431;-50
2023/05/06 11:46:17;;;;;;;12.10;4.40;;;;;;;16.37;41.59;100793.48;105739;1257;67151;-51
2023/05/06 11:48:45;;;;;;;9.30;4.00;;;;;;;16.55;40.83;100707.98;105656;1257;75572;-51
2023/05/06 11:51:12;;;;;;;8.60;3.80;;;;;;;16.55;41.37;100760.41;105649;1254;62204;-51
2023/05/06 11:53:39;;;;;;;6.80;3.30;;;;;;;16.50;40.19;100659.40;105705;1257;61481;-50
2023/05/06 11:56:07;;;;;;;5.70;3.30;;;;;;;16.34;40.51;100682.33;105695;1257;76245;-50
2023/05/06 11:58:34;;;;;;;10.90;3.10;;;;;;;16.25;40.29;100655.68;105670;1257;67504;-50
2023/05/06 12:01:02;;;;;;;5.80;3.30;;;;;;;16.20;40.12;100646.12;105724;1253;75149;-50
2023/05/06 12:03:30;;;;;;;4.50;2.80;;;;;;;16.11;40.89;100724.95;105774;1253;62890;-50
2023/05/06 12:05:57;;;;;;;4.30;2.70;;;;;;;16.14;41.06;100767.17;105739;1254;62033;-50
2023/05/06 12:08:32;;;;;;;17.00;4.30;;;;;;;16.05;39.81;100659.39;105737;1253;75229;-51
2023/05/06 12:11:01;;;;;;;9.30;2.20;;;;;;;15.96;39.43;100603.00;105725;1257;67248;-51
2023/05/06 12:13:28;;;;;;;6.60;2.60;;;;;;;15.99;38.42;100498.13;105748;1257;73202;-50
2023/05/06 12:15:57;;;;;;;4.70;1.70;;;;;;;15.98;38.15;100461.61;105800;1253;62850;-51
2023/05/06 12:18:24;;;;;;;9.10;2.70;;;;;;;15.85;38.98;100579.89;105743;1258;62245;-51
2023/05/06 12:20:59;;;;;;;4.00;2.30;;;;;;;15.97;38.17;100487.23;105645;1259;75997;-52
2023/05/06 12:23:26;;;;;;;4.90;2.50;;;;;;;16.01;37.56;100419.70;105701;1253;67441;-52